CheckWX is a tool to help pilots better visualize weather data.  It is not intended as a substitute for an official pre-flight weather briefing.

22:36:18 UTC

KSIK METAR
Sikeston Memorial Municipal Airport
Sikeston, Missouri, USA
Current

21 mins ago

KSIK 262215Z AUTO 02009KT 10SM CLR 13/M03 A3033 RMK AO2
Observed
Mar-26 @ 22:15 UTC
Wind
  • 020° at 9 KTS
Visibility
10 SM
Flight Rules
VFR
Cloud Levels
  • Clear skies
Temperature
13°C / 55°F
Dewpoint
-3°C / 27°F
Humidity
33%
Altimeter
30.33" Hg
Pressure
1027.12 hPa
Previous

41 mins ago

KSIK 262155Z AUTO 35010G14KT 10SM CLR 13/M03 A3034 RMK AO2
Observed
Mar-26 @ 21:55 UTC
Wind
  • 350° at 10 KTS
  • Gusting to 14 KTS
Visibility
10 SM
Flight Rules
VFR
Cloud Levels
  • Clear skies
Temperature
13°C / 55°F
Dewpoint
-3°C / 27°F
Humidity
33%
Altimeter
30.34" Hg
Pressure
1027.42 hPa
Previous

1 hour ago

KSIK 262135Z AUTO 36013KT 10SM CLR 13/M03 A3033 RMK AO2
Observed
Mar-26 @ 21:35 UTC
Wind
  • 360° at 13 KTS
Visibility
10 SM
Flight Rules
VFR
Cloud Levels
  • Clear skies
Temperature
13°C / 55°F
Dewpoint
-3°C / 27°F
Humidity
33%
Altimeter
30.33" Hg
Pressure
1027.12 hPa